sensor_id;sensor_type;location;lat;lon;timestamp;pressure;altitude;pressure_sealevel;temperature;humidity
79230;BME280;68663;49.122;17.544;2023-08-20T00:00:06;99743.88;;;26.56;56.82
79230;BME280;68663;49.122;17.544;2023-08-20T00:02:34;99744.75;;;26.53;56.71
79230;BME280;68663;49.122;17.544;2023-08-20T00:05:01;99739.44;;;26.55;56.55
79230;BME280;68663;49.122;17.544;2023-08-20T00:07:29;99731.75;;;26.55;56.55
79230;BME280;68663;49.122;17.544;2023-08-20T00:09:54;99736.97;;;26.57;56.26
79230;BME280;68663;49.122;17.544;2023-08-20T00:12:19;99734.13;;;26.57;56.33
79230;BME280;68663;49.122;17.544;2023-08-20T00:14:58;99738.56;;;26.58;56.31
79230;BME280;68663;49.122;17.544;2023-08-20T00:17:30;99728.47;;;26.57;56.57
79230;BME280;68663;49.122;17.544;2023-08-20T00:19:56;99732.53;;;26.56;56.61
79230;BME280;68663;49.122;17.544;2023-08-20T00:22:23;99734.13;;;26.57;56.45
79230;BME280;68663;49.122;17.544;2023-08-20T00:24:50;99740.25;;;26.55;56.77
79230;BME280;68663;49.122;17.544;2023-08-20T00:27:16;99739.00;;;26.56;56.56
79230;BME280;68663;49.122;17.544;2023-08-20T00:29:42;99730.94;;;26.55;56.64
79230;BME280;68663;49.122;17.544;2023-08-20T00:32:07;99730.94;;;26.55;56.89
79230;BME280;68663;49.122;17.544;2023-08-20T00:34:33;99734.13;;;26.57;57.26
79230;BME280;68663;49.122;17.544;2023-08-20T00:36:58;99736.97;;;26.57;56.88
79230;BME280;68663;49.122;17.544;2023-08-20T00:39:24;99735.00;;;26.54;56.71
79230;BME280;68663;49.122;17.544;2023-08-20T00:41:49;99748.84;;;26.52;56.77
79230;BME280;68663;49.122;17.544;2023-08-20T00:44:15;99743.97;;;26.52;56.90
79230;BME280;68663;49.122;17.544;2023-08-20T00:46:40;99744.75;;;26.53;56.93
79230;BME280;68663;49.122;17.544;2023-08-20T00:49:06;99742.72;;;26.53;56.98
79230;BME280;68663;49.122;17.544;2023-08-20T00:51:35;99745.56;;;26.53;56.83
79230;BME280;68663;49.122;17.544;2023-08-20T00:54:02;99746.34;;;26.54;57.12
79230;BME280;68663;49.122;17.544;2023-08-20T00:56:28;99749.19;;;26.54;56.83
79230;BME280;68663;49.122;17.544;2023-08-20T00:58:54;99742.28;;;26.55;56.86
79230;BME280;68663;49.122;17.544;2023-08-20T01:01:21;99743.88;;;26.56;57.42
79230;BME280;68663;49.122;17.544;2023-08-20T01:03:47;99743.88;;;26.56;57.08
79230;BME280;68663;49.122;17.544;2023-08-20T01:09:16;99745.47;;;26.57;56.86
79230;BME280;68663;49.122;17.544;2023-08-20T01:11:54;99749.13;;;26.57;56.81
79230;BME280;68663;49.122;17.544;2023-08-20T01:14:20;99762.50;;;26.57;56.89
79230;BME280;68663;49.122;17.544;2023-08-20T01:16:46;99751.94;;;26.57;56.67
79230;BME280;68663;49.122;17.544;2023-08-20T01:19:18;99742.66;;;26.57;56.54
79230;BME280;68663;49.122;17.544;2023-08-20T01:22:11;99749.91;;;26.58;57.10
79230;BME280;68663;49.122;17.544;2023-08-20T01:30:30;99755.22;;;26.56;56.70
79230;BME280;68663;49.122;17.544;2023-08-20T01:32:57;99758.88;;;26.56;56.89
79230;BME280;68663;49.122;17.544;2023-08-20T01:35:24;99756.47;;;26.55;56.83
79230;BME280;68663;49.122;17.544;2023-08-20T01:37:50;99765.84;;;26.52;56.93
79230;BME280;68663;49.122;17.544;2023-08-20T01:40:16;99760.53;;;26.54;56.82
79230;BME280;68663;49.122;17.544;2023-08-20T01:42:41;99756.91;;;26.53;56.88
79230;BME280;68663;49.122;17.544;2023-08-20T01:45:07;99761.34;;;26.54;56.81
79230;BME280;68663;49.122;17.544;2023-08-20T01:47:33;99760.53;;;26.54;56.48
79230;BME280;68663;49.122;17.544;2023-08-20T01:49:58;99757.69;;;26.54;56.64
79230;BME280;68663;49.122;17.544;2023-08-20T01:52:24;99770.66;;;26.55;57.02
79230;BME280;68663;49.122;17.544;2023-08-20T01:54:50;99766.56;;;26.56;57.14
79230;BME280;68663;49.122;17.544;2023-08-20T01:57:16;99760.91;;;26.56;56.89
79230;BME280;68663;49.122;17.544;2023-08-20T01:59:42;99754.44;;;26.55;56.43
79230;BME280;68663;49.122;17.544;2023-08-20T02:02:07;99760.91;;;26.56;56.81
79230;BME280;68663;49.122;17.544;2023-08-20T02:04:32;99767.38;;;26.56;56.74
79230;BME280;68663;49.122;17.544;2023-08-20T02:06:58;99768.16;;;26.57;56.77
79230;BME280;68663;49.122;17.544;2023-08-20T02:09:24;99768.16;;;26.57;56.71
79230;BME280;68663;49.122;17.544;2023-08-20T02:11:50;99775.88;;;26.56;56.72
79230;BME280;68663;49.122;17.544;2023-08-20T02:14:16;99773.84;;;26.57;56.49
79230;BME280;68663;49.122;17.544;2023-08-20T02:16:41;99773.03;;;26.56;56.37
79230;BME280;68663;49.122;17.544;2023-08-20T02:19:07;99775.06;;;26.56;56.50
79230;BME280;68663;49.122;17.544;2023-08-20T02:21:33;99777.91;;;26.56;56.52
79230;BME280;68663;49.122;17.544;2023-08-20T02:23:58;99777.56;;;26.54;56.30
79230;BME280;68663;49.122;17.544;2023-08-20T02:26:24;99783.22;;;26.54;56.62
79230;BME280;68663;49.122;17.544;2023-08-20T02:28:49;99782.88;;;26.52;56.61
79230;BME280;68663;49.122;17.544;2023-08-20T02:31:14;99784.47;;;26.53;56.54
79230;BME280;68663;49.122;17.544;2023-08-20T02:33:40;99778.78;;;26.53;56.20
79230;BME280;68663;49.122;17.544;2023-08-20T02:36:06;99778.78;;;26.53;56.44
79230;BME280;68663;49.122;17.544;2023-08-20T02:38:31;99774.34;;;26.52;56.22
79230;BME280;68663;49.122;17.544;2023-08-20T02:40:57;99774.72;;;26.54;56.23
79230;BME280;68663;49.122;17.544;2023-08-20T02:43:22;99769.03;;;26.54;56.51
79230;BME280;68663;49.122;17.544;2023-08-20T02:45:48;99763.38;;;26.54;56.38
79230;BME280;68663;49.122;17.544;2023-08-20T02:48:14;99763.38;;;26.54;56.32
79230;BME280;68663;49.122;17.544;2023-08-20T02:50:40;99766.22;;;26.54;56.11
79230;BME280;68663;49.122;17.544;2023-08-20T02:53:05;99764.97;;;26.55;56.27
79230;BME280;68663;49.122;17.544;2023-08-20T02:55:31;99760.97;;;26.52;56.49
79230;BME280;68663;49.122;17.544;2023-08-20T02:57:58;99765.84;;;26.52;56.26
79230;BME280;68663;49.122;17.544;2023-08-20T03:00:23;99753.78;;;26.48;56.14
79230;BME280;68663;49.122;17.544;2023-08-20T03:02:49;99763.88;;;26.49;56.29
79230;BME280;68663;49.122;17.544;2023-08-20T03:05:14;99758.22;;;26.49;56.32
79230;BME280;68663;49.122;17.544;2023-08-20T03:07:40;99756.97;;;26.50;56.50
79230;BME280;68663;49.122;17.544;2023-08-20T03:10:06;99747.25;;;26.51;56.44
79230;BME280;68663;49.122;17.544;2023-08-20T03:12:31;99745.63;;;26.50;56.48
79230;BME280;68663;49.122;17.544;2023-08-20T03:14:58;99755.53;;;26.42;56.61
79230;BME280;68663;49.122;17.544;2023-08-20T03:17:24;99747.47;;;26.40;56.43
79230;BME280;68663;49.122;17.544;2023-08-20T03:19:56;99752.34;;;26.40;56.64
79230;BME280;68663;49.122;17.544;2023-08-20T03:22:23;99761.19;;;26.42;56.22
79230;BME280;68663;49.122;17.544;2023-08-20T03:24:49;99765.19;;;26.44;56.43
79230;BME280;68663;49.122;17.544;2023-08-20T03:27:16;99767.16;;;26.47;56.28
79230;BME280;68663;49.122;17.544;2023-08-20T03:29:41;99757.84;;;26.47;56.18
79230;BME280;68663;49.122;17.544;2023-08-20T03:32:07;99755.81;;;26.47;56.06
79230;BME280;68663;49.122;17.544;2023-08-20T03:34:32;99762.66;;;26.50;56.29
79230;BME280;68663;49.122;17.544;2023-08-20T03:36:58;99767.53;;;26.49;56.36
79230;BME280;68663;49.122;17.544;2023-08-20T03:39:23;99771.16;;;26.50;56.23
79230;BME280;68663;49.122;17.544;2023-08-20T03:41:50;99772.41;;;26.49;56.28
79230;BME280;68663;49.122;17.544;2023-08-20T03:44:15;99769.91;;;26.51;56.13
79230;BME280;68663;49.122;17.544;2023-08-20T03:46:41;99777.19;;;26.52;56.27
79230;BME280;68663;49.122;17.544;2023-08-20T03:49:06;99779.22;;;26.51;56.21
79230;BME280;68663;49.122;17.544;2023-08-20T03:51:32;99783.31;;;26.50;56.62
79230;BME280;68663;49.122;17.544;2023-08-20T03:53:57;99781.25;;;26.51;56.37
79230;BME280;68663;49.122;17.544;2023-08-20T03:56:22;99785.34;;;26.50;56.52
79230;BME280;68663;49.122;17.544;2023-08-20T03:58:48;99796.69;;;26.50;56.04
79230;BME280;68663;49.122;17.544;2023-08-20T04:01:13;99795.50;;;26.47;56.23
79230;BME280;68663;49.122;17.544;2023-08-20T04:03:39;99789.03;;;26.47;56.34
79230;BME280;68663;49.122;17.544;2023-08-20T04:06:04;99789.47;;;26.45;56.42
79230;BME280;68663;49.122;17.544;2023-08-20T04:08:30;99787.44;;;26.46;56.16
79230;BME280;68663;49.122;17.544;2023-08-20T04:10:55;99787.44;;;26.46;56.03
79230;BME280;68663;49.122;17.544;2023-08-20T04:13:21;99784.59;;;26.46;56.22
79230;BME280;68663;49.122;17.544;2023-08-20T04:15:46;99785.41;;;26.46;55.98
79230;BME280;68663;49.122;17.544;2023-08-20T04:18:12;99787.81;;;26.48;56.21
79230;BME280;68663;49.122;17.544;2023-08-20T04:20:37;99792.69;;;26.47;56.10
79230;BME280;68663;49.122;17.544;2023-08-20T04:23:03;99790.66;;;26.48;56.16
79230;BME280;68663;49.122;17.544;2023-08-20T04:25:28;99794.28;;;26.48;55.98
79230;BME280;68663;49.122;17.544;2023-08-20T04:27:53;99795.06;;;26.49;55.97
79230;BME280;68663;49.122;17.544;2023-08-20T04:30:19;99793.03;;;26.49;55.87
79230;BME280;68663;49.122;17.544;2023-08-20T04:32:45;99789.41;;;26.49;55.75
79230;BME280;68663;49.122;17.544;2023-08-20T04:35:10;99791.00;;;26.50;55.74
79230;BME280;68663;49.122;17.544;2023-08-20T04:37:35;99801.13;;;26.51;56.05
79230;BME280;68663;49.122;17.544;2023-08-20T04:40:01;99797.47;;;26.50;55.63
79230;BME280;68663;49.122;17.544;2023-08-20T04:42:29;99805.19;;;26.50;55.79
79230;BME280;68663;49.122;17.544;2023-08-20T04:44:55;99803.59;;;26.49;56.16
79230;BME280;68663;49.122;17.544;2023-08-20T04:47:20;99800.38;;;26.47;55.73
79230;BME280;68663;49.122;17.544;2023-08-20T04:49:46;99801.63;;;26.46;55.86
79230;BME280;68663;49.122;17.544;2023-08-20T04:52:11;99796.81;;;26.43;55.69
79230;BME280;68663;49.122;17.544;2023-08-20T04:54:37;99798.44;;;26.44;55.88
79230;BME280;68663;49.122;17.544;2023-08-20T04:57:02;99795.94;;;26.46;56.01
79230;BME280;68663;49.122;17.544;2023-08-20T04:59:28;99812.16;;;26.45;55.82
79230;BME280;68663;49.122;17.544;2023-08-20T05:01:54;99810.13;;;26.46;55.74
79230;BME280;68663;49.122;17.544;2023-08-20T05:04:19;99819.44;;;26.46;55.73
79230;BME280;68663;49.122;17.544;2023-08-20T05:06:45;99810.94;;;26.46;55.93
79230;BME280;68663;49.122;17.544;2023-08-20T05:09:10;99809.69;;;26.47;55.65
79230;BME280;68663;49.122;17.544;2023-08-20T05:11:36;99813.34;;;26.48;56.05
79230;BME280;68663;49.122;17.544;2023-08-20T05:14:01;99812.09;;;26.49;55.62
79230;BME280;68663;49.122;17.544;2023-08-20T05:16:27;99819.81;;;26.48;55.74
79230;BME280;68663;49.122;17.544;2023-08-20T05:18:52;99814.50;;;26.50;55.70
79230;BME280;68663;49.122;17.544;2023-08-20T05:21:17;99820.59;;;26.49;55.67
79230;BME280;68663;49.122;17.544;2023-08-20T05:23:43;99819.38;;;26.50;55.65
79230;BME280;68663;49.122;17.544;2023-08-20T05:26:09;99823.00;;;26.50;56.03
79230;BME280;68663;49.122;17.544;2023-08-20T05:28:35;99817.31;;;26.50;56.11
79230;BME280;68663;49.122;17.544;2023-08-20T05:31:00;99825.03;;;26.50;56.24
79230;BME280;68663;49.122;17.544;2023-08-20T05:33:26;99821.84;;;26.48;56.22
79230;BME280;68663;49.122;17.544;2023-08-20T05:35:52;99820.25;;;26.47;56.49
79230;BME280;68663;49.122;17.544;2023-08-20T05:38:17;99827.94;;;26.46;56.36
79230;BME280;68663;49.122;17.544;2023-08-20T05:40:43;99827.94;;;26.46;56.16
79230;BME280;68663;49.122;17.544;2023-08-20T05:43:09;99840.44;;;26.49;55.79
79230;BME280;68663;49.122;17.544;2023-08-20T05:45:35;99839.22;;;26.50;56.07
79230;BME280;68663;49.122;17.544;2023-08-20T05:48:00;99839.22;;;26.50;56.14
79230;BME280;68663;49.122;17.544;2023-08-20T05:50:26;99833.91;;;26.52;56.17
79230;BME280;68663;49.122;17.544;2023-08-20T05:52:52;99834.28;;;26.54;56.10
79230;BME280;68663;49.122;17.544;2023-08-20T05:55:17;99838.72;;;26.55;56.63
79230;BME280;68663;49.122;17.544;2023-08-20T05:57:43;99840.31;;;26.56;56.44
79230;BME280;68663;49.122;17.544;2023-08-20T06:00:09;99838.63;;;26.58;56.07
79230;BME280;68663;49.122;17.544;2023-08-20T06:02:35;99839.44;;;26.59;56.03
79230;BME280;68663;49.122;17.544;2023-08-20T06:05:02;99841.41;;;26.62;56.13
79230;BME280;68663;49.122;17.544;2023-08-20T06:07:29;99837.75;;;26.61;56.38
79230;BME280;68663;49.122;17.544;2023-08-20T06:09:55;99835.28;;;26.63;56.22
79230;BME280;68663;49.122;17.544;2023-08-20T06:12:20;99845.84;;;26.63;56.00
79230;BME280;68663;49.122;17.544;2023-08-20T06:14:46;99837.25;;;26.66;56.14
79230;BME280;68663;49.122;17.544;2023-08-20T06:17:11;99837.25;;;26.66;56.26
79230;BME280;68663;49.122;17.544;2023-08-20T06:19:37;99842.50;;;26.68;56.59
79230;BME280;68663;49.122;17.544;2023-08-20T06:22:02;99840.81;;;26.71;56.13
79230;BME280;68663;49.122;17.544;2023-08-20T06:24:28;99840.00;;;26.70;56.59
79230;BME280;68663;49.122;17.544;2023-08-20T06:26:53;99836.75;;;26.72;56.10
79230;BME280;68663;49.122;17.544;2023-08-20T06:29:19;99835.50;;;26.73;56.20
79230;BME280;68663;49.122;17.544;2023-08-20T06:31:44;99839.94;;;26.74;56.24
79230;BME280;68663;49.122;17.544;2023-08-20T06:34:09;99833.03;;;26.75;56.07
79230;BME280;68663;49.122;17.544;2023-08-20T06:36:35;99836.66;;;26.75;56.15
79230;BME280;68663;49.122;17.544;2023-08-20T06:39:01;99835.44;;;26.76;56.03
79230;BME280;68663;49.122;17.544;2023-08-20T06:41:26;99843.50;;;26.78;55.90
79230;BME280;68663;49.122;17.544;2023-08-20T06:43:52;99839.34;;;26.82;56.07
79230;BME280;68663;49.122;17.544;2023-08-20T06:46:17;99840.94;;;26.83;56.92
79230;BME280;68663;49.122;17.544;2023-08-20T06:48:43;99837.25;;;26.86;57.14
79230;BME280;68663;49.122;17.544;2023-08-20T06:51:15;99840.47;;;26.88;57.01
79230;BME280;68663;49.122;17.544;2023-08-20T06:53:41;99838.00;;;26.90;57.47
79230;BME280;68663;49.122;17.544;2023-08-20T06:56:08;99836.75;;;26.91;57.59
79230;BME280;68663;49.122;17.544;2023-08-20T06:58:34;99836.31;;;26.93;57.33
79230;BME280;68663;49.122;17.544;2023-08-20T07:01:00;99837.47;;;26.95;57.42
79230;BME280;68663;49.122;17.544;2023-08-20T07:03:42;99837.47;;;26.95;57.73
79230;BME280;68663;49.122;17.544;2023-08-20T07:06:09;99839.06;;;26.96;57.53
79230;BME280;68663;49.122;17.544;2023-08-20T07:08:35;99836.22;;;26.96;57.58
79230;BME280;68663;49.122;17.544;2023-08-20T07:11:02;99845.13;;;26.99;57.47
79230;BME280;68663;49.122;17.544;2023-08-20T07:13:27;99842.66;;;27.01;57.55
79230;BME280;68663;49.122;17.544;2023-08-20T07:15:54;99849.94;;;27.02;57.97
79230;BME280;68663;49.122;17.544;2023-08-20T07:18:20;99851.53;;;27.03;57.68
79230;BME280;68663;49.122;17.544;2023-08-20T07:20:45;99851.09;;;27.04;57.16
79230;BME280;68663;49.122;17.544;2023-08-20T07:23:11;99852.25;;;27.07;57.63
79230;BME280;68663;49.122;17.544;2023-08-20T07:25:37;99857.13;;;27.06;57.30
79230;BME280;68663;49.122;17.544;2023-08-20T07:28:04;99851.47;;;27.06;57.44
79230;BME280;68663;49.122;17.544;2023-08-20T07:30:30;99858.28;;;27.09;57.27
79230;BME280;68663;49.122;17.544;2023-08-20T07:32:55;99855.81;;;27.11;57.33
79230;BME280;68663;49.122;17.544;2023-08-20T07:35:21;99856.19;;;27.13;57.81
79230;BME280;68663;49.122;17.544;2023-08-20T07:37:47;99852.91;;;27.14;57.34
79230;BME280;68663;49.122;17.544;2023-08-20T07:40:12;99856.91;;;27.17;57.20
79230;BME280;68663;49.122;17.544;2023-08-20T07:42:40;99854.06;;;27.17;57.68
79230;BME280;68663;49.122;17.544;2023-08-20T07:45:07;99853.19;;;27.20;57.72
79230;BME280;68663;49.122;17.544;2023-08-20T07:47:36;99847.06;;;27.21;57.82
79230;BME280;68663;49.122;17.544;2023-08-20T07:50:02;99850.69;;;27.22;58.21
79230;BME280;68663;49.122;17.544;2023-08-20T07:52:27;99855.13;;;27.23;58.45
79230;BME280;68663;49.122;17.544;2023-08-20T07:54:53;99851.06;;;27.24;57.89
79230;BME280;68663;49.122;17.544;2023-08-20T07:57:18;99857.53;;;27.24;57.78
79230;BME280;68663;49.122;17.544;2023-08-20T07:59:44;99857.09;;;27.26;57.24
79230;BME280;68663;49.122;17.544;2023-08-20T08:02:09;99862.34;;;27.27;57.54
79230;BME280;68663;49.122;17.544;2023-08-20T08:04:35;99861.09;;;27.28;58.06
79230;BME280;68663;49.122;17.544;2023-08-20T08:07:01;99850.88;;;27.31;57.90
79230;BME280;68663;49.122;17.544;2023-08-20T08:09:31;99859.78;;;27.33;58.04
79230;BME280;68663;49.122;17.544;2023-08-20T08:11:57;99854.88;;;27.34;57.75
79230;BME280;68663;49.122;17.544;2023-08-20T08:14:24;99857.28;;;27.35;57.85
79230;BME280;68663;49.122;17.544;2023-08-20T08:16:49;99851.59;;;27.35;57.31
79230;BME280;68663;49.122;17.544;2023-08-20T08:19:16;99846.72;;;27.36;57.42
79230;BME280;68663;49.122;17.544;2023-08-20T08:21:42;99854.63;;;27.28;55.89
79230;BME280;68663;49.122;17.544;2023-08-20T08:24:08;99847.94;;;27.18;52.89
79230;BME280;68663;49.122;17.544;2023-08-20T08:26:34;99852.09;;;27.14;54.40
79230;BME280;68663;49.122;17.544;2023-08-20T08:29:04;99848.53;;;27.10;53.20
79230;BME280;68663;49.122;17.544;2023-08-20T08:31:30;99854.00;;;27.01;51.52
79230;BME280;68663;49.122;17.544;2023-08-20T08:33:55;99847.09;;;27.02;53.26
79230;BME280;68663;49.122;17.544;2023-08-20T08:36:21;99852.41;;;27.00;54.11
79230;BME280;68663;49.122;17.544;2023-08-20T08:38:46;99850.75;;;27.02;55.68
79230;BME280;68663;49.122;17.544;2023-08-20T08:41:12;99853.94;;;27.04;55.70
79230;BME280;68663;49.122;17.544;2023-08-20T08:43:39;99849.56;;;27.00;56.12
79230;BME280;68663;49.122;17.544;2023-08-20T08:46:13;99849.22;;;26.98;55.49
79230;BME280;68663;49.122;17.544;2023-08-20T08:48:40;99846.78;;;26.96;55.92
79230;BME280;68663;49.122;17.544;2023-08-20T08:51:07;99849.25;;;26.94;55.86
79230;BME280;68663;49.122;17.544;2023-08-20T08:53:33;99840.81;;;26.90;55.39
79230;BME280;68663;49.122;17.544;2023-08-20T08:55:59;99848.47;;;26.93;55.94
79230;BME280;68663;49.122;17.544;2023-08-20T08:58:25;99852.53;;;26.92;55.18
79230;BME280;68663;49.122;17.544;2023-08-20T09:00:51;99856.28;;;26.86;53.46
79230;BME280;68663;49.122;17.544;2023-08-20T09:03:17;99852.75;;;26.82;54.68
79230;BME280;68663;49.122;17.544;2023-08-20T09:05:49;99855.84;;;26.87;54.56
79230;BME280;68663;49.122;17.544;2023-08-20T09:08:19;99850.13;;;26.91;55.44
79230;BME280;68663;49.122;17.544;2023-08-20T09:10:46;99851.38;;;26.90;55.12
79230;BME280;68663;49.122;17.544;2023-08-20T09:13:11;99844.91;;;26.89;55.12
79230;BME280;68663;49.122;17.544;2023-08-20T09:15:37;99847.78;;;26.86;54.97
79230;BME280;68663;49.122;17.544;2023-08-20T09:18:03;99843.72;;;26.87;54.55
79230;BME280;68663;49.122;17.544;2023-08-20T09:20:38;99848.09;;;26.91;55.75
79230;BME280;68663;49.122;17.544;2023-08-20T09:23:04;99850.06;;;26.94;55.77
79230;BME280;68663;49.122;17.544;2023-08-20T09:25:35;99851.66;;;26.95;56.26
79230;BME280;68663;49.122;17.544;2023-08-20T09:28:04;99854.06;;;26.97;56.09
79230;BME280;68663;49.122;17.544;2023-08-20T09:30:29;99854.81;;;27.01;56.78
79230;BME280;68663;49.122;17.544;2023-08-20T09:33:10;99854.00;;;27.01;57.19
79230;BME280;68663;49.122;17.544;2023-08-20T09:35:35;99851.63;;;26.99;56.73
79230;BME280;68663;49.122;17.544;2023-08-20T09:38:04;99853.66;;;26.99;56.53
79230;BME280;68663;49.122;17.544;2023-08-20T09:40:30;99854.81;;;27.01;55.99
79230;BME280;68663;49.122;17.544;2023-08-20T09:42:56;99848.69;;;27.03;56.88
79230;BME280;68663;49.122;17.544;2023-08-20T09:45:24;99851.53;;;27.03;57.13
79230;BME280;68663;49.122;17.544;2023-08-20T09:47:54;99844.63;;;27.04;57.92
79230;BME280;68663;49.122;17.544;2023-08-20T09:50:22;99842.59;;;27.04;57.13
79230;BME280;68663;49.122;17.544;2023-08-20T09:53:12;99842.66;;;27.01;56.15
79230;BME280;68663;49.122;17.544;2023-08-20T09:55:42;99845.69;;;27.10;59.67
79230;BME280;68663;49.122;17.544;2023-08-20T09:58:09;99845.22;;;27.31;61.59
79230;BME280;68663;49.122;17.544;2023-08-20T10:00:35;99846.09;;;27.28;60.23
79230;BME280;68663;49.122;17.544;2023-08-20T10:03:01;99837.22;;;27.26;59.11
79230;BME280;68663;49.122;17.544;2023-08-20T10:05:27;99838.63;;;27.18;55.96
79230;BME280;68663;49.122;17.544;2023-08-20T10:07:55;99840.75;;;27.14;56.36
79230;BME280;68663;49.122;17.544;2023-08-20T10:10:21;99833.09;;;27.11;55.55
79230;BME280;68663;49.122;17.544;2023-08-20T10:12:47;99830.28;;;27.11;55.78
79230;BME280;68663;49.122;17.544;2023-08-20T10:15:13;99829.91;;;27.09;55.71
79230;BME280;68663;49.122;17.544;2023-08-20T10:17:41;99827.16;;;27.05;54.97
79230;BME280;68663;49.122;17.544;2023-08-20T10:20:08;99838.66;;;26.98;53.74
79230;BME280;68663;49.122;17.544;2023-08-20T10:22:37;99826.50;;;26.98;53.17
79230;BME280;68663;49.122;17.544;2023-08-20T10:25:07;99827.31;;;26.98;51.80
79230;BME280;68663;49.122;17.544;2023-08-20T10:27:39;99829.75;;;26.96;53.39
79230;BME280;68663;49.122;17.544;2023-08-20T10:30:09;99824.84;;;27.00;53.46
79230;BME280;68663;49.122;17.544;2023-08-20T10:32:47;99826.34;;;27.05;53.78
79230;BME280;68663;49.122;17.544;2023-08-20T10:35:20;99824.69;;;27.07;55.26
79230;BME280;68663;49.122;17.544;2023-08-20T10:40:57;99829.47;;;27.10;55.63
79230;BME280;68663;49.122;17.544;2023-08-20T10:43:31;99825.75;;;27.13;55.74
79230;BME280;68663;49.122;17.544;2023-08-20T10:46:18;99820.88;;;27.14;55.57
79230;BME280;68663;49.122;17.544;2023-08-20T10:48:55;99813.25;;;27.11;53.25
79230;BME280;68663;49.122;17.544;2023-08-20T10:51:31;99815.28;;;27.10;53.10
79230;BME280;68663;49.122;17.544;2023-08-20T10:59:17;99810.84;;;27.09;53.11
79230;BME280;68663;49.122;17.544;2023-08-20T11:02:03;99811.13;;;27.15;53.94
79230;BME280;68663;49.122;17.544;2023-08-20T11:04:33;99805.88;;;27.13;54.19
79230;BME280;68663;49.122;17.544;2023-08-20T11:07:00;99805.97;;;27.10;52.81
79230;BME280;68663;49.122;17.544;2023-08-20T11:09:30;99810.03;;;27.09;52.17
79230;BME280;68663;49.122;17.544;2023-08-20T11:11:57;99797.00;;;27.11;52.04
79230;BME280;68663;49.122;17.544;2023-08-20T11:14:22;99795.41;;;27.10;52.31
79230;BME280;68663;49.122;17.544;2023-08-20T11:16:48;99805.59;;;27.08;52.19
79230;BME280;68663;49.122;17.544;2023-08-20T11:19:15;99797.19;;;27.04;50.63
79230;BME280;68663;49.122;17.544;2023-08-20T11:21:44;99795.66;;;27.00;49.29
79230;BME280;68663;49.122;17.544;2023-08-20T11:24:10;99799.72;;;26.99;49.33
79230;BME280;68663;49.122;17.544;2023-08-20T11:26:38;99802.94;;;27.01;49.86
79230;BME280;68663;49.122;17.544;2023-08-20T11:29:08;99791.50;;;27.04;49.62
79230;BME280;68663;49.122;17.544;2023-08-20T11:31:37;99788.75;;;27.01;51.15
79230;BME280;68663;49.122;17.544;2023-08-20T11:34:02;99794.84;;;26.99;49.80
79230;BME280;68663;49.122;17.544;2023-08-20T11:36:28;99796.47;;;27.00;50.83
79230;BME280;68663;49.122;17.544;2023-08-20T11:38:54;99789.97;;;27.00;52.08
79230;BME280;68663;49.122;17.544;2023-08-20T11:41:20;99794.84;;;26.99;50.71
79230;BME280;68663;49.122;17.544;2023-08-20T11:43:49;99792.47;;;26.98;50.99
79230;BME280;68663;49.122;17.544;2023-08-20T11:46:21;99794.41;;;27.01;51.68
79230;BME280;68663;49.122;17.544;2023-08-20T11:49:07;99797.63;;;27.03;52.04
79230;BME280;68663;49.122;17.544;2023-08-20T11:51:49;99796.91;;;26.99;52.41
79230;BME280;68663;49.122;17.544;2023-08-20T11:54:16;99798.25;;;26.90;52.61
79230;BME280;68663;49.122;17.544;2023-08-20T11:56:49;99795.56;;;26.83;49.52
79230;BME280;68663;49.122;17.544;2023-08-20T11:59:16;99795.63;;;26.80;49.72
79230;BME280;68663;49.122;17.544;2023-08-20T12:01:42;99799.19;;;26.84;50.14
79230;BME280;68663;49.122;17.544;2023-08-20T12:04:09;99798.31;;;26.87;51.17
79230;BME280;68663;49.122;17.544;2023-08-20T12:06:36;99800.78;;;26.85;51.87
79230;BME280;68663;49.122;17.544;2023-08-20T12:09:21;99801.59;;;26.85;52.25
79230;BME280;68663;49.122;17.544;2023-08-20T12:11:52;99798.69;;;26.89;51.45
79230;BME280;68663;49.122;17.544;2023-08-20T12:14:21;99790.19;;;26.89;52.04
79230;BME280;68663;49.122;17.544;2023-08-20T12:16:46;99794.69;;;26.86;51.40
79230;BME280;68663;49.122;17.544;2023-08-20T12:19:13;99793.03;;;26.89;52.09
79230;BME280;68663;49.122;17.544;2023-08-20T12:21:39;99796.22;;;26.91;52.56
79230;BME280;68663;49.122;17.544;2023-08-20T12:24:06;99787.75;;;26.87;51.81
79230;BME280;68663;49.122;17.544;2023-08-20T12:26:31;99786.97;;;26.87;51.44
79230;BME280;68663;49.122;17.544;2023-08-20T12:28:57;99792.22;;;26.88;51.86
79230;BME280;68663;49.122;17.544;2023-08-20T12:31:22;99791.00;;;26.89;52.79
79230;BME280;68663;49.122;17.544;2023-08-20T12:33:47;99782.03;;;26.91;52.15
79230;BME280;68663;49.122;17.544;2023-08-20T12:36:13;99768.66;;;26.91;52.27
79230;BME280;68663;49.122;17.544;2023-08-20T12:38:38;99776.66;;;26.96;51.72
79230;BME280;68663;49.122;17.544;2023-08-20T12:41:04;99771.34;;;26.99;51.48
79230;BME280;68663;49.122;17.544;2023-08-20T12:43:30;99769.31;;;26.99;51.38
79230;BME280;68663;49.122;17.544;2023-08-20T12:45:56;99773.31;;;27.02;50.59
79230;BME280;68663;49.122;17.544;2023-08-20T12:48:21;99777.75;;;27.03;50.30
79230;BME280;68663;49.122;17.544;2023-08-20T12:50:46;99776.88;;;27.06;50.44
79230;BME280;68663;49.122;17.544;2023-08-20T12:53:12;99769.59;;;27.05;50.04
79230;BME280;68663;49.122;17.544;2023-08-20T12:55:38;99767.13;;;27.07;49.97
79230;BME280;68663;49.122;17.544;2023-08-20T12:58:03;99767.91;;;27.07;49.80
79230;BME280;68663;49.122;17.544;2023-08-20T13:00:29;99763.03;;;27.08;49.77
79230;BME280;68663;49.122;17.544;2023-08-20T13:02:55;99759.75;;;27.09;50.05
79230;BME280;68663;49.122;17.544;2023-08-20T13:05:25;99762.94;;;27.11;49.79